Time,TemperatureF,DewpointF,PressureIn,WindDirection,WindDirectionDegrees,WindSpeedMPH,WindSpeedGustMPH,Humidity,HourlyPrecipIn,Conditions,Clouds,dailyrainin,SolarRadiationWatts/m^2,SoftwareType,DateUTC
2013-12-16 00:02:00,17.0,7.0,-100.00,WSW,253,13.0,25.0,65,0.00,,,0.00,0.000000,,2013-12-16 05:02:00,
2013-12-16 00:12:00,17.0,7.0,-100.00,WSW,253,13.0,25.0,65,0.00,,,0.00,0.000000,,2013-12-16 05:12:00,
2013-12-16 00:22:00,17.0,7.0,-100.00,WSW,253,13.0,25.0,65,0.00,,,0.00,0.000000,,2013-12-16 05:22:00,
2013-12-16 00:53:00,17.0,8.0,-100.00,WSW,251,11.0,23.0,67,0.00,,,0.00,0.000000,,2013-12-16 05:53:00,
2013-12-16 01:02:00,17.0,8.0,-100.00,WSW,251,11.0,23.0,67,0.00,,,0.00,0.000000,,2013-12-16 06:02:00,
2013-12-16 01:12:00,17.0,8.0,-100.00,WSW,251,11.0,23.0,67,0.00,,,0.00,0.000000,,2013-12-16 06:12:00,
2013-12-16 01:22:00,17.0,8.0,-100.00,WSW,251,11.0,23.0,67,0.00,,,0.00,0.000000,,2013-12-16 06:22:00,
2013-12-16 01:52:00,16.0,7.0,-100.00,WSW,254,11.0,21.0,67,0.00,,,0.00,0.000000,,2013-12-16 06:52:00,
2013-12-16 02:02:00,16.0,7.0,-100.00,WSW,254,11.0,21.0,67,0.00,,,0.00,0.000000,,2013-12-16 07:02:00,
2013-12-16 02:11:00,16.0,7.0,-100.00,WSW,254,11.0,21.0,67,0.00,,,0.00,0.000000,,2013-12-16 07:11:00,
2013-12-16 02:22:00,16.0,7.0,-100.00,WSW,254,11.0,21.0,67,0.00,,,0.00,0.000000,,2013-12-16 07:22:00,
2013-12-16 02:52:00,14.0,6.0,-100.00,WSW,237,7.0,18.0,69,0.00,,,0.00,0.000000,,2013-12-16 07:52:00,
2013-12-16 03:02:00,14.0,6.0,-100.00,WSW,237,7.0,18.0,69,0.00,,,0.00,0.000000,,2013-12-16 08:02:00,
2013-12-16 03:12:00,14.0,6.0,-100.00,WSW,237,7.0,18.0,69,0.00,,,0.00,0.000000,,2013-12-16 08:12:00,
2013-12-16 03:22:00,14.0,6.0,-100.00,WSW,237,7.0,18.0,69,0.00,,,0.00,0.000000,,2013-12-16 08:22:00,
2013-12-16 03:52:00,14.0,6.0,-100.00,SW,236,8.0,15.0,69,0.00,,,0.00,0.000000,,2013-12-16 08:52:00,
2013-12-16 04:03:00,14.0,6.0,-100.00,SW,236,8.0,15.0,69,0.00,,,0.00,0.000000,,2013-12-16 09:03:00,
2013-12-16 04:11:00,14.0,6.0,-100.00,SW,236,8.0,15.0,69,0.00,,,0.00,0.000000,,2013-12-16 09:11:00,
2013-12-16 04:22:00,14.0,6.0,-100.00,SW,236,8.0,15.0,69,0.00,,,0.00,0.000000,,2013-12-16 09:22:00,
2013-12-16 04:53:00,13.0,5.0,-100.00,WSW,240,9.0,17.0,70,0.00,,,0.00,0.000000,,2013-12-16 09:53:00,
2013-12-16 05:03:00,13.0,5.0,-100.00,WSW,240,9.0,17.0,70,0.00,,,0.00,0.000000,,2013-12-16 10:03:00,
2013-12-16 05:13:00,13.0,5.0,-100.00,WSW,240,9.0,17.0,70,0.00,,,0.00,0.000000,,2013-12-16 10:13:00,
2013-12-16 05:23:00,13.0,5.0,-100.00,WSW,240,9.0,17.0,70,0.00,,,0.00,0.000000,,2013-12-16 10:23:00,
2013-12-16 05:53:00,13.0,6.0,-100.00,WSW,237,10.0,19.0,73,0.00,,,0.00,0.000000,,2013-12-16 10:53:00,
2013-12-16 06:03:00,13.0,6.0,-100.00,WSW,237,10.0,19.0,73,0.00,,,0.00,0.000000,,2013-12-16 11:03:00,
2013-12-16 06:12:00,13.0,6.0,-100.00,WSW,237,10.0,19.0,73,0.00,,,0.00,0.000000,,2013-12-16 11:12:00,
2013-12-16 06:22:00,13.0,6.0,-100.00,WSW,237,10.0,19.0,73,0.00,,,0.00,0.000000,,2013-12-16 11:22:00,
2013-12-16 06:53:00,12.0,5.0,-100.00,WSW,241,6.0,16.0,73,0.00,,,0.00,0.000000,,2013-12-16 11:53:00,
2013-12-16 07:02:00,12.0,5.0,-100.00,WSW,241,6.0,16.0,73,0.00,,,0.00,0.000000,,2013-12-16 12:02:00,
2013-12-16 07:12:00,12.0,5.0,-100.00,WSW,241,6.0,16.0,73,0.00,,,0.00,0.000000,,2013-12-16 12:12:00,
2013-12-16 07:22:00,12.0,5.0,-100.00,WSW,241,6.0,16.0,73,0.00,,,0.00,0.000000,,2013-12-16 12:22:00,
2013-12-16 07:52:00,12.0,5.0,-100.00,SW,235,7.0,11.0,74,0.00,,,0.00,0.000000,,2013-12-16 12:52:00,
2013-12-16 08:01:00,12.0,5.0,-100.00,SW,235,7.0,11.0,74,0.00,,,0.00,0.000000,,2013-12-16 13:01:00,
2013-12-16 08:11:00,12.0,5.0,-100.00,SW,235,7.0,11.0,74,0.00,,,0.00,0.000000,,2013-12-16 13:11:00,
2013-12-16 08:22:00,12.0,5.0,-100.00,SW,235,7.0,11.0,74,0.00,,,0.00,0.000000,,2013-12-16 13:22:00,
2013-12-16 08:52:00,13.0,7.0,-100.00,WSW,246,8.0,13.0,75,0.00,,,0.00,11.000000,,2013-12-16 13:52:00,
2013-12-16 09:02:00,13.0,7.0,-100.00,WSW,246,8.0,13.0,75,0.00,,,0.00,11.000000,,2013-12-16 14:02:00,
2013-12-16 09:12:00,13.0,7.0,-100.00,WSW,246,8.0,13.0,75,0.00,,,0.00,11.000000,,2013-12-16 14:12:00,
2013-12-16 09:22:00,13.0,7.0,-100.00,WSW,246,8.0,13.0,75,0.00,,,0.00,11.000000,,2013-12-16 14:22:00,
2013-12-16 09:52:00,14.0,7.0,-100.00,WSW,243,7.0,13.0,73,0.00,,,0.00,71.000000,,2013-12-16 14:52:00,
2013-12-16 10:02:00,14.0,7.0,-100.00,WSW,243,7.0,13.0,73,0.00,,,0.00,71.000000,,2013-12-16 15:02:00,
2013-12-16 10:11:00,14.0,7.0,-100.00,WSW,243,7.0,13.0,73,0.00,,,0.00,71.000000,,2013-12-16 15:11:00,
2013-12-16 10:22:00,14.0,7.0,-100.00,WSW,243,7.0,13.0,73,0.00,,,0.00,71.000000,,2013-12-16 15:22:00,
2013-12-16 10:54:00,17.0,9.0,-100.00,West,267,10.0,14.0,69,0.00,,,0.00,90.000000,,2013-12-16 15:54:00,
2013-12-16 11:04:00,17.0,9.0,-100.00,West,267,10.0,14.0,69,0.00,,,0.00,90.000000,,2013-12-16 16:04:00,
2013-12-16 11:13:00,17.0,9.0,-100.00,West,267,10.0,14.0,69,0.00,,,0.00,90.000000,,2013-12-16 16:13:00,
2013-12-16 11:23:00,17.0,9.0,-100.00,West,267,10.0,14.0,69,0.00,,,0.00,90.000000,,2013-12-16 16:23:00,
2013-12-16 11:53:00,19.0,10.0,-100.00,West,268,8.0,14.0,67,0.00,,,0.00,58.000000,,2013-12-16 16:53:00,
2013-12-16 12:03:00,19.0,10.0,-100.00,West,268,8.0,14.0,67,0.00,,,0.00,58.000000,,2013-12-16 17:03:00,
2013-12-16 12:12:00,19.0,10.0,-100.00,West,268,8.0,14.0,67,0.00,,,0.00,58.000000,,2013-12-16 17:12:00,
2013-12-16 12:23:00,19.0,10.0,-100.00,West,268,8.0,14.0,67,0.00,,,0.00,58.000000,,2013-12-16 17:23:00,
2013-12-16 12:52:00,20.0,10.0,-100.00,WSW,256,8.0,17.0,65,0.00,,,0.00,166.000000,,2013-12-16 17:52:00,
2013-12-16 13:02:00,20.0,10.0,-100.00,WSW,256,8.0,17.0,65,0.00,,,0.00,166.000000,,2013-12-16 18:02:00,
2013-12-16 13:12:00,20.0,10.0,-100.00,WSW,256,8.0,17.0,65,0.00,,,0.00,166.000000,,2013-12-16 18:12:00,
2013-12-16 13:22:00,20.0,10.0,-100.00,WSW,256,8.0,17.0,65,0.00,,,0.00,166.000000,,2013-12-16 18:22:00,
2013-12-16 13:52:00,22.0,11.0,-100.00,WNW,295,7.0,13.0,62,0.00,,,0.00,303.000000,,2013-12-16 18:52:00,
2013-12-16 14:02:00,22.0,11.0,-100.00,WNW,295,7.0,13.0,62,0.00,,,0.00,303.000000,,2013-12-16 19:02:00,
2013-12-16 14:11:00,22.0,11.0,-100.00,WNW,295,7.0,13.0,62,0.00,,,0.00,303.000000,,2013-12-16 19:11:00,
2013-12-16 14:22:00,22.0,11.0,-100.00,WNW,295,7.0,13.0,62,0.00,,,0.00,303.000000,,2013-12-16 19:22:00,
2013-12-16 14:52:00,22.0,8.0,-100.00,NW,309,5.0,13.0,55,0.00,,,0.00,361.000000,,2013-12-16 19:52:00,
2013-12-16 15:02:00,22.0,8.0,-100.00,NW,309,5.0,13.0,55,0.00,,,0.00,361.000000,,2013-12-16 20:02:00,
2013-12-16 15:11:00,22.0,8.0,-100.00,NW,309,5.0,13.0,55,0.00,,,0.00,361.000000,,2013-12-16 20:11:00,
2013-12-16 15:22:00,22.0,8.0,-100.00,NW,309,5.0,13.0,55,0.00,,,0.00,361.000000,,2013-12-16 20:22:00,
2013-12-16 15:53:00,21.0,7.0,-100.00,NNW,330,4.0,10.0,54,0.00,,,0.00,189.000000,,2013-12-16 20:53:00,
2013-12-16 16:02:00,21.0,7.0,-100.00,NNW,330,4.0,10.0,54,0.00,,,0.00,189.000000,,2013-12-16 21:02:00,
2013-12-16 16:12:00,21.0,7.0,-100.00,NNW,330,4.0,10.0,54,0.00,,,0.00,189.000000,,2013-12-16 21:12:00,
2013-12-16 16:22:00,21.0,7.0,-100.00,NNW,330,4.0,10.0,54,0.00,,,0.00,189.000000,,2013-12-16 21:22:00,
2013-12-16 16:54:00,15.0,5.0,-100.00,NNE,13,3.0,6.0,65,0.00,,,0.00,80.000000,,2013-12-16 21:54:00,
2013-12-16 17:03:00,15.0,5.0,-100.00,NNE,13,3.0,6.0,65,0.00,,,0.00,80.000000,,2013-12-16 22:03:00,
2013-12-16 17:13:00,15.0,5.0,-100.00,NNE,13,3.0,6.0,65,0.00,,,0.00,80.000000,,2013-12-16 22:13:00,
2013-12-16 17:23:00,15.0,5.0,-100.00,NNE,13,3.0,6.0,65,0.00,,,0.00,80.000000,,2013-12-16 22:23:00,
2013-12-16 17:53:00,13.0,7.0,-100.00,ESE,123,2.0,4.0,78,0.00,,,0.00,3.000000,,2013-12-16 22:53:00,
2013-12-16 18:03:00,13.0,7.0,-100.00,ESE,123,2.0,4.0,78,0.00,,,0.00,3.000000,,2013-12-16 23:03:00,
2013-12-16 18:12:00,13.0,7.0,-100.00,ESE,123,2.0,4.0,78,0.00,,,0.00,3.000000,,2013-12-16 23:12:00,
2013-12-16 18:22:00,13.0,7.0,-100.00,ESE,123,2.0,4.0,78,0.00,,,0.00,3.000000,,2013-12-16 23:22:00,
2013-12-16 19:11:00,7.0,3.0,-100.00,SE,128,2.0,6.0,84,0.00,,,0.00,0.000000,,2013-12-17 00:11:00,
2013-12-16 19:22:00,7.0,3.0,-100.00,SE,128,2.0,6.0,84,0.00,,,0.00,0.000000,,2013-12-17 00:22:00,
2013-12-16 19:52:00,4.0,0.0,-100.00,North,-999,0.0,2.0,82,0.00,,,0.00,0.000000,,2013-12-17 00:52:00,
2013-12-16 20:02:00,4.0,0.0,-100.00,North,-999,0.0,2.0,82,0.00,,,0.00,0.000000,,2013-12-17 01:02:00,
2013-12-16 20:11:00,4.0,0.0,-100.00,North,-999,0.0,2.0,82,0.00,,,0.00,0.000000,,2013-12-17 01:11:00,
2013-12-16 20:22:00,4.0,0.0,-100.00,North,-999,0.0,2.0,82,0.00,,,0.00,0.000000,,2013-12-17 01:22:00,
2013-12-16 20:52:00,4.0,1.0,-100.00,ESE,118,2.0,5.0,85,0.00,,,0.00,0.000000,,2013-12-17 01:52:00,
2013-12-16 21:01:00,4.0,1.0,-100.00,ESE,118,2.0,5.0,85,0.00,,,0.00,0.000000,,2013-12-17 02:01:00,
2013-12-16 21:11:00,4.0,1.0,-100.00,ESE,118,2.0,5.0,85,0.00,,,0.00,0.000000,,2013-12-17 02:11:00,
2013-12-16 21:22:00,4.0,1.0,-100.00,ESE,118,2.0,5.0,85,0.00,,,0.00,0.000000,,2013-12-17 02:22:00,
2013-12-16 21:52:00,1.0,-3.0,-100.00,North,-999,0.0,3.0,82,0.00,,,0.00,0.000000,,2013-12-17 02:52:00,
2013-12-16 22:02:00,1.0,-3.0,-100.00,North,-999,0.0,3.0,82,0.00,,,0.00,0.000000,,2013-12-17 03:02:00,
2013-12-16 22:11:00,1.0,-3.0,-100.00,North,-999,0.0,3.0,82,0.00,,,0.00,0.000000,,2013-12-17 03:11:00,
2013-12-16 22:22:00,1.0,-3.0,-100.00,North,-999,0.0,3.0,82,0.00,,,0.00,0.000000,,2013-12-17 03:22:00,
2013-12-16 22:53:00,0.0,-99.9,-100.00,SE,127,2.0,4.0,77,0.00,,,0.00,0.000000,,2013-12-17 03:53:00,
2013-12-16 23:03:00,0.0,-99.9,-100.00,SE,127,2.0,4.0,77,0.00,,,0.00,0.000000,,2013-12-17 04:03:00,
2013-12-16 23:13:00,0.0,-5.0,-100.00,SE,127,2.0,4.0,77,0.00,,,0.00,0.000000,,2013-12-17 04:13:00,
2013-12-16 23:23:00,0.0,-99.9,-100.00,SE,127,2.0,4.0,77,0.00,,,0.00,0.000000,,2013-12-17 04:23:00,
2013-12-16 23:53:00,2.0,-2.0,-100.00,SE,136,2.0,4.0,81,0.00,,,0.00,0.000000,,2013-12-17 04:53:00,